Time;durP1;ratioP1;P1;durP2;ratioP2;P2;SDS_P1;SDS_P2;PMS_P1;PMS_P2;Temp;Humidity;BMP_temperature;BMP_pressure;BME280_temperature;BME280_humidity;BME280_pressure;Samples;Min_cycle;Max_cycle;Signal;HPM_P1;HPM_P2
2021/05/23 00:00:47;;;;;;;1.00;0.70;;;;;;;9.83;100.00;98619.91;10496642;28;20186;-76
2021/05/23 00:06:06;;;;;;;0.90;0.70;;;;;;;9.80;100.00;98617.94;10495030;28;20211;-77
2021/05/23 00:11:25;;;;;;;0.90;0.60;;;;;;;9.77;100.00;98614.03;10495922;28;20167;-75
2021/05/23 00:16:44;;;;;;;1.27;0.80;;;;;;;9.74;100.00;98616.81;10497279;28;20178;-74
2021/05/23 00:22:05;;;;;;;2.83;0.60;;;;;;;9.70;100.00;98627.84;10495976;28;20178;-74
2021/05/23 00:27:24;;;;;;;1.07;0.60;;;;;;;9.74;100.00;98630.56;10495672;28;20229;-75
2021/05/23 00:32:45;;;;;;;2.10;0.80;;;;;;;9.74;100.00;98625.84;10495900;28;20167;-75
2021/05/23 00:38:05;;;;;;;3.67;1.70;;;;;;;9.68;100.00;98641.19;10496564;28;20246;-73
2021/05/23 00:43:24;;;;;;;0.90;0.60;;;;;;;9.56;100.00;98646.38;10496807;28;20179;-76
2021/05/23 00:48:43;;;;;;;1.40;0.80;;;;;;;9.53;100.00;98642.47;10494806;28;20218;-74
2021/05/23 00:54:02;;;;;;;0.97;0.77;;;;;;;9.57;100.00;98626.75;10495624;28;20183;-74
2021/05/23 00:59:21;;;;;;;0.90;0.50;;;;;;;9.49;100.00;98621.72;10496453;28;20206;-74
2021/05/23 01:04:40;;;;;;;0.90;0.60;;;;;;;9.43;100.00;98628.81;10495135;28;20617;-76
2021/05/23 01:10:10;;;;;;;0.97;0.70;;;;;;;9.31;100.00;98618.31;10497091;28;20240;-73
2021/05/23 01:15:33;;;;;;;0.93;0.67;;;;;;;9.33;100.00;98626.94;10503556;28;20273;-73
2021/05/23 01:20:58;;;;;;;1.00;0.80;;;;;;;9.28;100.00;98613.63;10502080;28;20178;-76
2021/05/23 01:26:17;;;;;;;1.00;0.60;;;;;;;9.25;100.00;98614.44;10501888;28;20211;-75
2021/05/23 01:31:39;;;;;;;0.90;0.50;;;;;;;9.17;100.00;98607.44;10502093;28;20175;-75
2021/05/23 01:36:59;;;;;;;0.87;0.50;;;;;;;9.15;100.00;98611.75;10514808;28;20207;-74
2021/05/23 01:42:19;;;;;;;0.90;0.63;;;;;;;9.03;100.00;98610.25;10502563;28;20171;-76
2021/05/23 01:47:39;;;;;;;1.87;1.10;;;;;;;9.01;100.00;98633.75;10501122;28;20206;-75
2021/05/23 01:53:01;;;;;;;1.77;0.70;;;;;;;8.87;100.00;98650.28;10499985;28;20697;-73
2021/05/23 01:58:20;;;;;;;1.00;0.63;;;;;;;8.84;100.00;98637.38;10502027;28;20254;-73
2021/05/23 02:03:40;;;;;;;0.90;0.80;;;;;;;8.94;100.00;98629.09;10513946;28;20163;-73
2021/05/23 02:08:59;;;;;;;1.00;0.77;;;;;;;9.09;100.00;98616.06;10500423;28;20281;-75
2021/05/23 02:14:18;;;;;;;0.80;0.50;;;;;;;9.10;100.00;98614.91;10500384;28;20175;-73
2021/05/23 02:19:37;;;;;;;1.10;0.77;;;;;;;9.09;100.00;98616.06;10499899;28;20262;-74
2021/05/23 02:24:56;;;;;;;0.90;0.53;;;;;;;9.11;100.00;98630.97;10499883;28;20632;-75
2021/05/23 02:30:21;;;;;;;0.90;0.50;;;;;;;9.00;100.00;98634.97;10499968;28;20234;-77
2021/05/23 02:35:44;;;;;;;1.07;0.60;;;;;;;8.95;100.00;98643.59;10499140;28;20183;-74
2021/05/23 02:41:04;;;;;;;4.50;0.90;;;;;;;8.93;100.00;98656.91;10500179;28;20178;-74
2021/05/23 02:46:23;;;;;;;1.20;0.80;;;;;;;8.98;100.00;98668.25;10499945;28;20204;-74
2021/05/23 02:51:42;;;;;;;1.10;1.00;;;;;;;9.08;100.00;98685.88;10497550;28;20182;-73
2021/05/23 02:57:01;;;;;;;1.63;0.70;;;;;;;9.11;100.00;98682.31;10498569;28;20182;-73
2021/05/23 03:02:20;;;;;;;1.37;1.03;;;;;;;9.15;100.00;98683.88;10499151;28;20175;-75
2021/05/23 03:07:44;;;;;;;0.80;0.43;;;;;;;9.13;100.00;98699.94;10497592;28;20202;-75
2021/05/23 03:13:06;;;;;;;1.00;0.60;;;;;;;9.17;100.00;98695.22;10498772;28;20167;-74
2021/05/23 03:18:24;;;;;;;1.00;0.70;;;;;;;9.19;100.00;98708.53;10497743;28;20191;-73
2021/05/23 03:23:43;;;;;;;1.47;1.23;;;;;;;9.18;100.00;98707.78;10498795;28;20628;-74
2021/05/23 03:29:03;;;;;;;3.00;0.80;;;;;;;9.10;100.00;98705.44;10497042;28;20230;-76
2021/05/23 03:34:22;;;;;;;0.90;0.60;;;;;;;9.11;100.00;98707.81;10496972;28;20208;-78
2021/05/23 03:39:41;;;;;;;1.10;0.50;;;;;;;8.94;100.00;98702.38;10498187;28;20170;-75
2021/05/23 03:45:01;;;;;;;0.97;0.57;;;;;;;8.82;100.00;98714.56;10498024;28;20178;-74
2021/05/23 03:50:23;;;;;;;1.00;0.70;;;;;;;8.93;100.00;98726.28;10495923;28;20214;-75
2021/05/23 03:55:42;;;;;;;0.90;0.67;;;;;;;9.13;100.00;98726.63;10497920;28;20183;-75
2021/05/23 04:01:01;;;;;;;0.90;0.60;;;;;;;9.31;100.00;98732.81;10496690;28;20654;-77
2021/05/23 04:06:20;;;;;;;0.90;0.50;;;;;;;9.41;100.00;98751.97;10496172;28;20198;-78
2021/05/23 04:11:42;;;;;;;1.00;0.70;;;;;;;9.38;100.00;98754.75;10497309;28;20175;-76
2021/05/23 04:17:01;;;;;;;1.00;0.70;;;;;;;9.43;100.00;98752.38;10497345;28;20518;-74
2021/05/23 04:22:20;;;;;;;0.90;0.60;;;;;;;9.49;100.00;98761.75;10495793;28;20186;-76
2021/05/23 04:27:41;;;;;;;1.00;0.67;;;;;;;9.51;100.00;98767.63;10495514;28;20230;-76
2021/05/23 04:33:01;;;;;;;2.10;0.90;;;;;;;9.50;100.00;98768.81;10496838;28;20223;-73
2021/05/23 04:38:20;;;;;;;0.97;0.70;;;;;;;9.48;100.00;98776.66;10496779;28;20170;-74
2021/05/23 04:43:39;;;;;;;0.93;0.60;;;;;;;9.71;100.00;98790.66;10496783;28;20198;-73
2021/05/23 04:48:58;;;;;;;1.23;1.10;;;;;;;9.79;100.00;98794.94;10502965;28;20649;-76
2021/05/23 04:54:18;;;;;;;1.47;0.70;;;;;;;9.98;100.00;98808.22;10504605;28;20178;-72
2021/05/23 04:59:38;;;;;;;1.00;0.70;;;;;;;10.04;100.00;98828.59;10503592;28;20335;-76
2021/05/23 05:04:57;;;;;;;0.93;0.60;;;;;;;9.99;100.00;98840.00;10502891;28;20170;-79
2021/05/23 05:10:16;;;;;;;0.90;0.70;;;;;;;10.06;100.00;98826.22;10503241;28;20241;-75
2021/05/23 05:15:35;;;;;;;0.90;0.73;;;;;;;10.23;100.00;98823.34;10502774;28;20191;-77
2021/05/23 05:20:54;;;;;;;1.67;0.60;;;;;;;10.41;100.00;98816.56;10502415;28;20186;-77
2021/05/23 05:26:13;;;;;;;10.80;1.13;;;;;;;10.53;100.00;98827.06;10503182;28;20680;-76
2021/05/23 05:31:33;;;;;;;0.80;0.50;;;;;;;10.64;100.00;98830.53;10502105;28;20190;-76
2021/05/23 05:36:52;;;;;;;0.90;0.50;;;;;;;10.65;100.00;98854.09;10500713;28;20178;-78
2021/05/23 05:42:11;;;;;;;0.90;0.60;;;;;;;10.68;100.00;98861.53;10502742;28;20250;-76
2021/05/23 05:47:30;;;;;;;0.90;0.50;;;;;;;10.62;100.00;98874.16;10501124;28;20206;-78
2021/05/23 05:52:49;;;;;;;9.10;0.93;;;;;;;10.86;100.00;98859.41;10501008;28;20178;-79
2021/05/23 05:58:08;;;;;;;1.00;0.60;;;;;;;10.91;100.00;98871.97;10500317;28;20175;-78
2021/05/23 06:03:27;;;;;;;0.97;0.57;;;;;;;10.82;100.00;98893.66;10499601;28;20625;-77
2021/05/23 06:08:46;;;;;;;0.90;0.60;;;;;;;11.03;100.00;98902.50;10500084;28;20646;-79
2021/05/23 06:14:05;;;;;;;0.80;0.50;;;;;;;11.67;100.00;98889.72;10501328;28;20521;-76
2021/05/23 06:19:24;;;;;;;1.07;0.80;;;;;;;11.75;100.00;98907.72;10500071;28;20183;-76
2021/05/23 06:24:43;;;;;;;1.17;0.80;;;;;;;11.77;100.00;98908.09;10500729;28;20194;-79
2021/05/23 06:30:04;;;;;;;1.13;0.97;;;;;;;11.40;100.00;98919.88;10500064;28;20258;-75
2021/05/23 06:35:23;;;;;;;1.10;0.80;;;;;;;11.10;100.00;98946.50;10497998;28;20171;-77
2021/05/23 06:40:42;;;;;;;1.10;0.60;;;;;;;11.11;100.00;98946.09;10500246;28;20261;-79
2021/05/23 06:46:02;;;;;;;1.00;0.90;;;;;;;11.38;100.00;98946.25;10499859;28;20198;-75
2021/05/23 06:51:21;;;;;;;2.93;1.00;;;;;;;11.62;100.00;98948.78;10497563;28;20175;-75
2021/05/23 06:56:41;;;;;;;0.90;0.60;;;;;;;11.93;100.00;98946.91;10498577;28;21229;-76
2021/05/23 07:02:00;;;;;;;1.97;0.80;;;;;;;11.65;100.00;98948.00;10498410;28;20645;-75
2021/05/23 07:07:19;;;;;;;10.10;1.00;;;;;;;11.62;100.00;98956.28;10497388;28;20202;-76
2021/05/23 07:12:38;;;;;;;0.93;0.57;;;;;;;11.73;100.00;98955.00;10497944;28;20198;-74
2021/05/23 07:17:58;;;;;;;7.50;1.60;;;;;;;11.44;100.00;98985.94;10497765;28;20179;-75
2021/05/23 07:23:18;;;;;;;1.10;0.67;;;;;;;11.53;100.00;98967.00;10498395;28;20206;-74
2021/05/23 07:28:37;;;;;;;1.77;0.93;;;;;;;11.40;100.00;98972.22;10497777;28;20226;-73
2021/05/23 07:33:56;;;;;;;1.07;0.80;;;;;;;11.64;100.00;98978.69;10495842;28;20182;-77
2021/05/23 07:39:15;;;;;;;1.00;0.70;;;;;;;11.72;100.00;98986.50;10484297;28;20210;-79
2021/05/23 07:44:34;;;;;;;1.00;0.67;;;;;;;11.70;100.00;98993.59;10493999;28;20206;-79
2021/05/23 07:49:53;;;;;;;1.00;0.87;;;;;;;11.56;100.00;99001.97;10485134;28;20707;-78
2021/05/23 07:55:12;;;;;;;1.20;0.80;;;;;;;11.71;100.00;98995.19;10456302;28;20614;-76
2021/05/23 08:00:31;;;;;;;1.93;1.70;;;;;;;12.39;100.00;99012.13;10456175;28;20176;-76
2021/05/23 08:05:51;;;;;;;1.00;0.80;;;;;;;12.51;98.05;98994.25;10454846;28;20167;-75
2021/05/23 08:11:11;;;;;;;1.20;0.80;;;;;;;12.76;95.80;98995.50;10455858;28;20183;-76
2021/05/23 08:16:31;;;;;;;1.10;0.87;;;;;;;12.90;92.92;99006.34;10455852;28;20175;-76
2021/05/23 08:21:50;;;;;;;1.17;1.07;;;;;;;13.19;85.74;99005.53;10459429;28;20258;-80
2021/05/23 08:27:09;;;;;;;2.00;1.27;;;;;;;13.85;85.92;99017.44;10463818;28;20689;-78
2021/05/23 08:32:28;;;;;;;1.20;1.10;;;;;;;13.58;85.76;99020.25;10463955;28;20175;-77
2021/05/23 08:37:47;;;;;;;1.20;1.00;;;;;;;13.45;85.26;99023.25;10461484;28;20171;-76
2021/05/23 08:43:10;;;;;;;2.50;1.73;;;;;;;14.04;83.72;99025.78;10463539;28;20217;-76
2021/05/23 08:48:29;;;;;;;2.47;1.20;;;;;;;14.34;86.42;99019.31;10461734;28;20309;-79
2021/05/23 08:53:48;;;;;;;1.20;0.93;;;;;;;13.70;69.98;99039.00;10463118;28;20171;-78
2021/05/23 08:59:11;;;;;;;1.10;0.80;;;;;;;14.48;62.59;99022.56;10461923;28;20167;-77
2021/05/23 09:04:30;;;;;;;1.95;1.30;;;;;;;13.73;65.90;99024.34;10459089;28;21255;-77
2021/05/23 09:09:50;;;;;;;1.20;0.90;;;;;;;14.01;66.30;99031.38;10461973;28;20215;-76
2021/05/23 09:15:12;;;;;;;1.00;0.73;;;;;;;15.22;61.75;99023.28;10462419;28;20175;-76
2021/05/23 09:20:31;;;;;;;2.03;0.73;;;;;;;14.54;61.52;99034.69;10460882;28;20175;-78
2021/05/23 09:25:51;;;;;;;1.10;1.00;;;;;;;14.67;61.46;99046.69;10460878;28;20207;-79
2021/05/23 09:31:12;;;;;;;1.60;1.27;;;;;;;15.59;58.00;99053.31;10460686;28;20242;-80
2021/05/23 09:36:44;;;;;;;2.80;1.10;;;;;;;15.05;56.76;99045.88;10460370;28;20180;-77
2021/05/23 09:42:06;;;;;;;2.23;1.07;;;;;;;15.40;57.96;99058.91;10460347;28;20172;-77
2021/05/23 09:47:25;;;;;;;1.10;0.70;;;;;;;15.37;55.89;99051.47;10460779;28;20207;-76
2021/05/23 09:52:44;;;;;;;1.10;0.80;;;;;;;14.57;59.38;99045.72;10474456;28;20194;-76
2021/05/23 09:58:04;;;;;;;2.63;1.37;;;;;;;13.90;61.37;99067.50;10484864;28;20190;-77
2021/05/23 10:03:25;;;;;;;2.77;1.00;;;;;;;14.08;64.12;99070.72;10468460;28;20274;-79
2021/05/23 10:08:46;;;;;;;1.10;0.77;;;;;;;14.64;64.37;99069.69;10472899;28;20211;-77
2021/05/23 10:14:05;;;;;;;1.10;1.00;;;;;;;14.67;60.92;99063.31;10486270;28;20168;-76
2021/05/23 10:19:28;;;;;;;1.10;0.80;;;;;;;15.33;58.37;99070.19;10474794;28;20182;-75
2021/05/23 10:24:52;;;;;;;1.10;0.73;;;;;;;15.89;55.96;99069.59;10485725;28;20215;-78
2021/05/23 10:30:13;;;;;;;1.20;1.00;;;;;;;15.88;54.55;99065.28;10459506;28;20586;-75
2021/05/23 10:35:34;;;;;;;1.10;0.80;;;;;;;15.12;58.73;99087.25;10483330;28;20221;-75
2021/05/23 10:40:59;;;;;;;1.00;0.70;;;;;;;15.93;56.54;99072.28;10477931;28;20170;-78
2021/05/23 10:46:18;;;;;;;1.10;0.83;;;;;;;17.48;49.14;99071.06;10491174;28;20206;-78
2021/05/23 10:51:37;;;;;;;1.30;1.20;;;;;;;17.49;51.02;99078.94;10465582;28;20191;-76
2021/05/23 10:57:02;;;;;;;3.10;1.00;;;;;;;16.04;52.45;99081.91;10480296;28;20183;-75
2021/05/23 11:02:21;;;;;;;0.90;0.63;;;;;;;16.70;50.48;99068.25;10462902;28;20176;-79
2021/05/23 11:07:52;;;;;;;1.30;0.90;;;;;;;16.94;48.25;99073.84;10478914;28;20233;-75
2021/05/23 11:13:27;;;;;;;1.00;0.80;;;;;;;17.13;48.63;99081.22;10481791;28;20183;-76
2021/05/23 11:18:46;;;;;;;0.90;0.50;;;;;;;16.20;49.64;99092.97;10477765;28;20183;-76
2021/05/23 11:24:06;;;;;;;1.17;0.80;;;;;;;15.72;52.00;99095.78;10468632;28;20659;-76
2021/05/23 11:29:25;;;;;;;1.00;0.70;;;;;;;15.62;52.33;99107.13;10455853;28;20222;-77
2021/05/23 11:34:45;;;;;;;0.90;0.70;;;;;;;16.99;49.49;99078.84;10455544;28;20618;-77
2021/05/23 11:40:06;;;;;;;1.10;0.80;;;;;;;16.84;48.77;99097.16;10466891;28;20656;-76
2021/05/23 11:45:25;;;;;;;9.60;1.33;;;;;;;17.00;50.72;99079.66;10521184;28;20186;-76
2021/05/23 11:50:44;;;;;;;3.53;0.87;;;;;;;17.61;48.49;99075.38;10493008;28;20293;-77
2021/05/23 11:56:07;;;;;;;1.50;1.00;;;;;;;16.41;50.42;99098.78;10476616;28;20211;-76
2021/05/23 12:01:31;;;;;;;1.10;0.90;;;;;;;16.94;47.80;99086.97;10460530;28;20246;-77
2021/05/23 12:06:53;;;;;;;1.30;1.00;;;;;;;17.32;49.84;99069.16;10454117;28;20556;-79
2021/05/23 12:12:12;;;;;;;1.10;0.80;;;;;;;17.60;48.63;99080.16;10467525;28;20187;-78
2021/05/23 12:17:32;;;;;;;1.20;0.97;;;;;;;17.64;46.74;99075.28;10534550;28;20170;-76
2021/05/23 12:22:53;;;;;;;1.20;0.70;;;;;;;16.25;48.89;99089.66;10537269;28;20189;-75
2021/05/23 12:28:12;;;;;;;0.97;0.67;;;;;;;16.10;51.38;99089.28;10537772;28;20229;-76
2021/05/23 12:33:32;;;;;;;1.00;0.70;;;;;;;15.89;51.15;99096.56;10537272;28;20186;-77
2021/05/23 12:39:05;;;;;;;1.03;0.80;;;;;;;16.79;50.83;99089.38;10538273;28;20174;-76
2021/05/23 12:44:29;;;;;;;1.63;1.10;;;;;;;18.26;48.13;99085.53;10538154;28;20532;-75
2021/05/23 12:49:48;;;;;;;1.00;0.70;;;;;;;17.13;46.90;99106.22;10513800;28;20206;-75
2021/05/23 12:55:15;;;;;;;1.10;0.80;;;;;;;16.02;53.29;99125.94;10496232;28;20269;-76
2021/05/23 13:00:42;;;;;;;1.33;0.83;;;;;;;14.13;68.86;99150.53;10496090;28;20517;-75
2021/05/23 13:06:02;;;;;;;1.00;0.60;;;;;;;14.22;72.27;99131.38;10496537;28;20178;-75
2021/05/23 13:11:21;;;;;;;1.30;0.80;;;;;;;14.83;64.12;99136.13;10503507;28;20174;-77
2021/05/23 13:16:51;;;;;;;0.90;0.50;;;;;;;15.84;57.09;99136.69;10470588;28;20183;-76
2021/05/23 13:22:10;;;;;;;1.00;0.60;;;;;;;16.32;54.67;99137.50;10460510;28;20200;-76
2021/05/23 13:27:29;;;;;;;0.90;0.40;;;;;;;17.30;49.55;99124.41;10461596;28;20231;-75
2021/05/23 13:32:48;;;;;;;1.60;0.90;;;;;;;16.67;50.63;99127.44;10461685;28;20175;-76
2021/05/23 13:38:07;;;;;;;0.90;0.50;;;;;;;15.68;51.88;99122.81;10460686;28;20179;-76
2021/05/23 13:43:27;;;;;;;1.00;0.50;;;;;;;15.66;53.76;99128.03;10461149;28;20171;-76
2021/05/23 13:48:46;;;;;;;0.87;0.50;;;;;;;15.92;52.46;99126.22;10458505;28;20214;-75
2021/05/23 13:54:07;;;;;;;0.97;0.70;;;;;;;17.28;49.65;99118.53;10460977;28;20550;-76
2021/05/23 13:59:27;;;;;;;0.90;0.60;;;;;;;16.94;50.39;99120.31;10460729;28;20201;-75
2021/05/23 14:04:49;;;;;;;1.10;0.60;;;;;;;17.90;48.80;99120.56;10459393;28;20188;-78
2021/05/23 14:10:08;;;;;;;1.20;0.63;;;;;;;17.05;54.86;99129.13;10461942;28;20309;-76
2021/05/23 14:15:29;;;;;;;1.00;0.70;;;;;;;16.23;58.80;99134.53;10476711;28;20214;-75
2021/05/23 14:20:48;;;;;;;0.97;0.70;;;;;;;15.53;60.46;99126.38;10498226;28;20190;-74
2021/05/23 14:26:09;;;;;;;0.90;0.67;;;;;;;16.12;58.67;99136.78;10495646;28;20191;-76
2021/05/23 14:31:28;;;;;;;0.97;0.60;;;;;;;16.89;54.32;99127.19;10458597;28;20301;-75
2021/05/23 14:36:49;;;;;;;1.00;0.80;;;;;;;17.25;54.46;99119.38;10457775;28;20188;-75
2021/05/23 14:42:08;;;;;;;0.90;0.50;;;;;;;16.90;55.74;99134.31;10458703;28;20172;-76
2021/05/23 14:47:28;;;;;;;3.73;0.83;;;;;;;16.36;54.45;99140.19;10457240;28;20211;-75
2021/05/23 14:52:48;;;;;;;0.90;0.53;;;;;;;16.85;54.52;99143.19;10469532;28;20539;-76
2021/05/23 14:58:07;;;;;;;0.90;0.50;;;;;;;17.05;52.56;99121.56;10461400;28;20187;-75
2021/05/23 15:03:26;;;;;;;1.00;0.60;;;;;;;16.83;53.89;99131.72;10487354;28;20207;-74
2021/05/23 15:08:46;;;;;;;0.90;0.63;;;;;;;16.45;53.79;99126.47;10484294;28;20745;-75
2021/05/23 15:14:05;;;;;;;0.90;0.50;;;;;;;16.39;50.81;99128.97;10468760;28;20195;-74
2021/05/23 15:19:25;;;;;;;1.03;0.60;;;;;;;16.94;49.11;99121.09;10471541;28;20572;-74
2021/05/23 15:24:44;;;;;;;1.00;0.70;;;;;;;16.21;51.50;99133.41;10462107;28;20681;-74
2021/05/23 15:30:19;;;;;;;1.57;0.60;;;;;;;15.95;53.29;99126.13;10485162;28;20218;-74
2021/05/23 15:35:39;;;;;;;0.90;0.70;;;;;;;16.83;53.01;99119.84;10478706;28;20183;-74
2021/05/23 15:40:58;;;;;;;1.00;0.60;;;;;;;16.93;50.07;99133.44;10495538;28;20183;-74
2021/05/23 15:46:18;;;;;;;1.10;0.70;;;;;;;15.86;48.23;99123.19;10471271;28;20184;-74
2021/05/23 15:51:37;;;;;;;0.80;0.50;;;;;;;15.47;49.17;99115.00;10462831;28;20187;-77
2021/05/23 15:56:57;;;;;;;0.90;0.50;;;;;;;15.56;49.71;99125.47;10497473;28;20174;-76
2021/05/23 16:02:17;;;;;;;0.80;0.50;;;;;;;15.87;49.56;99108.09;10497489;28;20543;-76
2021/05/23 16:07:37;;;;;;;0.90;0.60;;;;;;;15.78;50.88;99118.25;10495746;28;20206;-76
2021/05/23 16:12:56;;;;;;;1.00;0.80;;;;;;;15.97;50.42;99116.16;10497183;28;20277;-75
2021/05/23 16:18:16;;;;;;;1.17;0.90;;;;;;;16.40;50.41;99111.09;10494949;28;20628;-75
2021/05/23 16:23:36;;;;;;;1.10;0.60;;;;;;;16.98;48.88;99101.53;10497056;28;20636;-78
2021/05/23 16:28:55;;;;;;;1.20;0.70;;;;;;;16.77;49.64;99107.69;10509932;28;20222;-75
2021/05/23 16:34:14;;;;;;;1.00;0.70;;;;;;;16.40;51.19;99113.09;10495724;28;20195;-76
2021/05/23 16:39:33;;;;;;;0.90;0.60;;;;;;;16.06;50.94;99110.00;10496975;28;20215;-75
2021/05/23 16:44:52;;;;;;;1.60;0.63;;;;;;;16.48;49.99;99111.69;10504766;28;20602;-74
2021/05/23 16:50:16;;;;;;;1.30;0.67;;;;;;;16.10;51.86;99108.69;10502776;28;20206;-75
2021/05/23 16:55:36;;;;;;;0.90;0.60;;;;;;;15.84;54.11;99108.19;10504525;28;20167;-74
2021/05/23 17:00:56;;;;;;;2.70;1.63;;;;;;;17.00;51.54;99102.66;10504381;28;20585;-74
2021/05/23 17:06:15;;;;;;;0.93;0.60;;;;;;;17.26;49.16;99104.25;10501802;28;20170;-76
2021/05/23 17:11:34;;;;;;;1.00;0.60;;;;;;;17.81;48.56;99106.53;10503804;28;20190;-75
2021/05/23 17:16:54;;;;;;;1.40;1.10;;;;;;;18.40;46.00;99101.75;10503655;28;20170;-73
2021/05/23 17:22:13;;;;;;;1.67;0.70;;;;;;;17.79;46.75;99101.41;10502173;28;20668;-75
2021/05/23 17:27:32;;;;;;;1.00;0.60;;;;;;;18.26;46.96;99107.03;10502473;28;20623;-75
2021/05/23 17:32:52;;;;;;;1.00;0.70;;;;;;;18.32;46.13;99099.69;10503084;28;20183;-75
2021/05/23 17:38:11;;;;;;;1.00;0.73;;;;;;;18.11;47.01;99106.72;10502458;28;20175;-75
2021/05/23 17:43:30;;;;;;;1.00;0.63;;;;;;;17.46;48.37;99104.84;10502557;28;20182;-74
2021/05/23 17:48:49;;;;;;;6.13;0.77;;;;;;;16.48;50.25;99104.16;10500693;28;20206;-74
2021/05/23 17:54:09;;;;;;;1.00;0.60;;;;;;;15.91;53.79;99108.00;10501951;28;20187;-74
2021/05/23 17:59:28;;;;;;;1.10;0.70;;;;;;;15.58;53.47;99115.53;10502104;28;20186;-74
2021/05/23 18:04:47;;;;;;;1.03;0.60;;;;;;;15.38;54.82;99120.34;10500610;28;20178;-74
2021/05/23 18:10:08;;;;;;;0.90;0.50;;;;;;;15.22;56.40;99111.19;10500998;28;20289;-75
2021/05/23 18:15:27;;;;;;;1.90;0.90;;;;;;;15.12;57.39;99105.88;10500698;28;20202;-75
2021/05/23 18:20:46;;;;;;;1.00;0.70;;;;;;;15.12;57.71;99105.88;10500086;28;20179;-75
2021/05/23 18:26:06;;;;;;;1.63;0.57;;;;;;;14.94;58.07;99099.94;10501163;28;20175;-77
2021/05/23 18:31:26;;;;;;;2.10;0.80;;;;;;;14.73;59.98;99108.66;10500770;28;20190;-75
2021/05/23 18:36:45;;;;;;;1.00;0.73;;;;;;;14.71;60.01;99108.31;10499597;28;20183;-75
2021/05/23 18:42:07;;;;;;;1.73;0.90;;;;;;;14.71;60.37;99119.38;10500551;28;20170;-74
2021/05/23 18:47:26;;;;;;;1.30;1.20;;;;;;;14.42;61.75;99126.66;10500087;28;20235;-74
2021/05/23 18:52:46;;;;;;;1.00;0.60;;;;;;;14.14;63.32;99127.16;10498819;28;20186;-74
2021/05/23 18:58:05;;;;;;;1.03;0.60;;;;;;;14.09;65.35;99132.38;10499728;28;20175;-74
2021/05/23 19:03:26;;;;;;;1.10;0.73;;;;;;;13.75;66.98;99137.28;10497735;28;20167;-74
2021/05/23 19:08:45;;;;;;;3.03;1.30;;;;;;;13.58;69.11;99147.41;10498887;28;20224;-74
2021/05/23 19:14:05;;;;;;;1.50;1.40;;;;;;;13.31;71.04;99145.06;10499226;28;20191;-76
2021/05/23 19:19:24;;;;;;;1.10;0.80;;;;;;;13.07;73.22;99154.44;10497572;28;20199;-77
2021/05/23 19:24:43;;;;;;;0.90;0.60;;;;;;;12.89;74.75;99162.94;10498794;28;20178;-76
2021/05/23 19:30:08;;;;;;;1.30;0.90;;;;;;;12.60;77.13;99173.91;10496813;28;20265;-75
2021/05/23 19:35:30;;;;;;;1.63;1.13;;;;;;;12.39;77.05;99180.41;10495398;28;20171;-77
2021/05/23 19:40:49;;;;;;;4.20;1.10;;;;;;;12.44;79.26;99174.44;10496772;28;20183;-78
2021/05/23 19:46:08;;;;;;;1.47;0.80;;;;;;;12.07;80.59;99184.66;10496490;28;20187;-78
2021/05/23 19:51:28;;;;;;;1.37;1.27;;;;;;;11.99;81.52;99183.16;10495211;28;20269;-74
2021/05/23 19:56:48;;;;;;;0.90;0.60;;;;;;;11.84;83.41;99189.16;10496181;28;20207;-75
2021/05/23 20:02:07;;;;;;;1.57;1.13;;;;;;;11.69;86.25;99190.44;10496155;28;20194;-77
2021/05/23 20:07:26;;;;;;;1.10;0.97;;;;;;;11.66;86.59;99196.75;10494471;28;20210;-76
2021/05/23 20:12:48;;;;;;;1.00;0.70;;;;;;;11.43;88.81;99204.75;10495682;28;20194;-74
2021/05/23 20:18:08;;;;;;;0.90;0.67;;;;;;;11.24;91.98;99200.50;10494475;28;20258;-76
2021/05/23 20:23:28;;;;;;;0.90;0.60;;;;;;;10.98;94.20;99189.22;10495033;28;20242;-76
2021/05/23 20:28:47;;;;;;;1.53;1.20;;;;;;;10.88;97.85;99189.25;10473654;28;630017;-74
2021/05/23 20:34:07;;;;;;;1.40;0.63;;;;;;;10.71;99.51;99196.38;10495574;28;20198;-74
2021/05/23 20:39:26;;;;;;;2.10;0.87;;;;;;;10.50;100.00;99204.66;10496042;28;20183;-75
2021/05/23 20:44:48;;;;;;;5.37;3.63;;;;;;;10.36;100.00;99203.91;10496739;28;20178;-76
2021/05/23 20:50:08;;;;;;;2.03;1.83;;;;;;;10.45;100.00;99207.81;10494968;28;20566;-75
2021/05/23 20:55:26;;;;;;;1.37;0.63;;;;;;;10.28;100.00;99199.59;10495504;28;20174;-76
2021/05/23 21:00:46;;;;;;;1.10;1.00;;;;;;;10.00;100.00;99204.31;10465999;28;20534;-74
2021/05/23 21:06:06;;;;;;;1.40;1.00;;;;;;;10.08;100.00;99203.91;10470506;28;20633;-77
2021/05/23 21:11:25;;;;;;;1.17;0.80;;;;;;;10.07;100.00;99205.09;10468354;28;20179;-75
2021/05/23 21:16:44;;;;;;;1.60;0.97;;;;;;;9.87;100.00;99192.91;10471964;28;20178;-74
2021/05/23 21:22:04;;;;;;;2.60;1.53;;;;;;;9.68;100.00;99208.97;10472557;28;20194;-75
2021/05/23 21:27:23;;;;;;;1.97;1.60;;;;;;;9.44;100.00;99197.91;10475509;28;20230;-74
2021/05/23 21:32:43;;;;;;;2.03;0.73;;;;;;;9.42;100.00;99203.81;10475330;28;20187;-75
2021/05/23 21:38:02;;;;;;;1.20;1.00;;;;;;;9.23;100.00;99203.38;10476741;28;20254;-73
2021/05/23 21:43:21;;;;;;;1.67;1.40;;;;;;;9.24;100.00;99202.97;10478830;28;20175;-72
2021/05/23 21:48:40;;;;;;;3.50;1.40;;;;;;;9.10;100.00;99210.34;10471928;28;20195;-75
2021/05/23 21:53:59;;;;;;;1.23;1.00;;;;;;;9.21;100.00;99216.69;10473112;28;20622;-72
2021/05/23 21:59:19;;;;;;;8.97;1.03;;;;;;;8.88;100.00;99220.44;10479868;28;20190;-74
2021/05/23 22:04:38;;;;;;;1.67;1.57;;;;;;;8.78;100.00;99210.22;10483161;28;20187;-77
2021/05/23 22:09:57;;;;;;;1.77;1.67;;;;;;;8.70;100.00;99207.81;10476603;28;20199;-74
2021/05/23 22:15:17;;;;;;;2.00;1.90;;;;;;;8.62;100.00;99199.94;10479637;28;20178;-73
2021/05/23 22:20:38;;;;;;;3.17;1.67;;;;;;;8.51;100.00;99210.84;10472828;28;20640;-73
2021/05/23 22:25:57;;;;;;;1.73;1.63;;;;;;;8.39;100.00;99202.16;10466217;28;20217;-74
2021/05/23 22:31:17;;;;;;;1.50;1.40;;;;;;;8.44;100.00;99188.09;10457658;28;20238;-75
2021/05/23 22:36:36;;;;;;;1.30;1.17;;;;;;;8.27;100.00;99192.28;10458008;28;20251;-76
2021/05/23 22:41:56;;;;;;;1.40;0.93;;;;;;;8.17;100.00;99192.19;10458228;28;20172;-75
2021/05/23 22:47:15;;;;;;;1.27;1.17;;;;;;;8.09;100.00;99196.03;10457769;28;20199;-77
2021/05/23 22:52:35;;;;;;;2.57;1.70;;;;;;;8.07;100.00;99185.44;10456632;28;20626;-75
2021/05/23 22:57:54;;;;;;;0.93;0.77;;;;;;;8.05;100.00;99184.25;10458502;28;20638;-76
2021/05/23 23:03:21;;;;;;;1.10;0.90;;;;;;;8.02;100.00;99180.34;10456926;28;20172;-75
2021/05/23 23:08:41;;;;;;;1.13;1.03;;;;;;;8.06;100.00;99161.97;10456753;28;20211;-73
2021/05/23 23:14:02;;;;;;;1.13;1.03;;;;;;;7.93;100.00;99170.84;10457028;28;20183;-73
2021/05/23 23:19:21;;;;;;;3.80;1.00;;;;;;;7.72;100.00;99176.16;10456587;28;20562;-74
2021/05/23 23:24:40;;;;;;;1.57;1.30;;;;;;;7.71;100.00;99169.09;10457582;28;20315;-74
2021/05/23 23:29:59;;;;;;;1.30;1.20;;;;;;;7.57;100.00;99169.00;10455774;28;20231;-72
2021/05/23 23:35:19;;;;;;;1.37;1.27;;;;;;;7.32;100.00;99175.38;10454896;28;20183;-73
2021/05/23 23:40:38;;;;;;;1.00;0.70;;;;;;;7.21;100.00;99178.00;10456002;28;20179;-73
2021/05/23 23:45:56;;;;;;;1.30;0.80;;;;;;;7.18;100.00;99177.97;10456681;28;20250;-73
2021/05/23 23:51:16;;;;;;;1.53;0.93;;;;;;;7.20;100.00;99183.84;10454601;28;20248;-73
2021/05/23 23:56:35;;;;;;;1.33;1.10;;;;;;;6.99;100.00;99177.34;10455349;28;20614;-74
